createdAt,value
2023-05-17T00:10:16.102Z,10.04
2023-05-17T00:12:46.384Z,10.11
2023-05-17T00:15:14.976Z,10.37
2023-05-17T00:17:49.257Z,10.21
2023-05-17T00:20:18.795Z,10.06
2023-05-17T00:22:47.575Z,10.17
2023-05-17T00:25:17.210Z,10.20
2023-05-17T00:27:44.051Z,10.15
2023-05-17T00:30:11.085Z,10.15
2023-05-17T00:32:37.908Z,10.32
2023-05-17T00:35:05.091Z,10.08
2023-05-17T00:37:31.972Z,10.16
2023-05-17T00:39:58.768Z,10.15
2023-05-17T00:42:25.584Z,9.97
2023-05-17T00:44:52.465Z,9.90
2023-05-17T00:47:19.399Z,10.04
2023-05-17T00:49:47.089Z,10.16
2023-05-17T00:52:14.066Z,9.74
2023-05-17T00:54:41.139Z,10.00
2023-05-17T00:57:09.149Z,9.60
2023-05-17T00:59:37.693Z,9.97
2023-05-17T01:02:05.068Z,9.87
2023-05-17T01:04:32.807Z,9.75
2023-05-17T01:06:59.808Z,9.63
2023-05-17T01:09:26.798Z,9.50
2023-05-17T01:11:56.722Z,9.72
2023-05-17T01:14:26.205Z,9.71
2023-05-17T01:17:07.458Z,9.42
2023-05-17T01:19:52.958Z,9.54
2023-05-17T01:22:35.712Z,9.61
2023-05-17T01:25:28.926Z,9.53
2023-05-17T01:27:59.826Z,9.44
2023-05-17T01:30:28.911Z,9.42
2023-05-17T01:32:59.219Z,9.24
2023-05-17T01:35:29.937Z,9.43
2023-05-17T01:37:57.028Z,9.51
2023-05-17T01:40:24.539Z,9.32
2023-05-17T01:43:01.532Z,9.43
2023-05-17T01:45:36.153Z,9.20
2023-05-17T01:48:35.141Z,9.31
2023-05-17T01:51:04.169Z,9.43
2023-05-17T01:53:38.059Z,9.34
2023-05-17T01:56:10.461Z,8.82
2023-05-17T01:58:46.679Z,8.91
2023-05-17T02:01:16.100Z,9.14
2023-05-17T02:03:43.052Z,9.04
2023-05-17T02:06:09.890Z,9.06
2023-05-17T02:08:36.868Z,8.92
2023-05-17T02:11:03.698Z,9.09
2023-05-17T02:13:30.440Z,9.19
2023-05-17T02:16:04.073Z,9.10
2023-05-17T02:18:32.868Z,9.04
2023-05-17T02:20:59.855Z,9.09
2023-05-17T02:23:26.679Z,8.96
2023-05-17T02:25:53.547Z,8.96
2023-05-17T02:28:20.439Z,9.16
2023-05-17T02:30:47.276Z,9.20
2023-05-17T02:33:14.231Z,9.21
2023-05-17T02:35:41.042Z,8.98
2023-05-17T02:38:07.953Z,9.15
2023-05-17T02:40:34.869Z,8.95
2023-05-17T02:43:01.710Z,9.09
2023-05-17T02:45:28.684Z,9.06
2023-05-17T02:47:55.860Z,9.18
2023-05-17T02:50:22.671Z,9.16
2023-05-17T02:52:49.496Z,9.15
2023-05-17T02:55:16.477Z,9.15
2023-05-17T02:57:43.438Z,8.89
2023-05-17T03:00:10.691Z,9.12
2023-05-17T03:02:37.706Z,8.93
2023-05-17T03:05:05.048Z,9.12
2023-05-17T03:07:31.843Z,8.90
2023-05-17T03:09:58.631Z,8.89
2023-05-17T03:12:26.481Z,9.00
2023-05-17T03:14:54.616Z,9.02
2023-05-17T03:17:21.618Z,8.98
2023-05-17T03:19:48.520Z,9.06
2023-05-17T03:22:15.519Z,8.85
2023-05-17T03:24:42.318Z,9.07
2023-05-17T03:27:09.176Z,9.02
2023-05-17T03:29:36.026Z,8.93
2023-05-17T03:32:03.162Z,8.84
2023-05-17T03:34:29.984Z,8.89
2023-05-17T03:36:56.920Z,8.71
2023-05-17T03:39:23.776Z,8.92
2023-05-17T03:41:51.453Z,8.77
2023-05-17T03:44:18.291Z,8.86
2023-05-17T03:46:45.108Z,8.82
2023-05-17T03:49:12.097Z,8.42
2023-05-17T03:51:39.000Z,8.86
2023-05-17T03:54:06.373Z,8.68
2023-05-17T03:56:33.286Z,8.38
2023-05-17T03:59:00.093Z,8.76
2023-05-17T04:01:27.511Z,8.69
2023-05-17T04:03:54.388Z,8.52
2023-05-17T04:06:21.232Z,8.77
2023-05-17T04:08:48.136Z,8.54
2023-05-17T04:11:15.195Z,8.66
2023-05-17T04:13:43.304Z,8.38
2023-05-17T04:16:10.644Z,8.53
2023-05-17T04:18:39.263Z,8.68
2023-05-17T04:21:07.239Z,8.85
2023-05-17T04:23:35.123Z,8.65
2023-05-17T04:26:02.054Z,8.63
2023-05-17T04:28:28.934Z,8.66
2023-05-17T04:30:56.307Z,8.66
2023-05-17T04:33:24.526Z,8.72
2023-05-17T04:35:54.756Z,8.63
2023-05-17T04:38:21.807Z,8.53
2023-05-17T04:40:48.674Z,8.54
2023-05-17T04:43:15.754Z,8.48
2023-05-17T04:45:43.152Z,8.58
2023-05-17T04:48:10.045Z,8.58
2023-05-17T04:50:36.904Z,8.45
2023-05-17T04:53:03.662Z,8.36
2023-05-17T04:55:30.991Z,8.44
2023-05-17T04:57:57.864Z,8.50
2023-05-17T05:00:24.777Z,8.39
2023-05-17T05:02:51.640Z,8.39
2023-05-17T05:05:19.958Z,8.33
2023-05-17T05:07:46.723Z,8.03
2023-05-17T05:10:13.615Z,8.36
2023-05-17T05:12:40.470Z,8.35
2023-05-17T05:15:07.812Z,8.36
2023-05-17T05:17:34.962Z,8.34
2023-05-17T05:20:02.052Z,8.26
2023-05-17T05:22:28.871Z,8.30
2023-05-17T05:24:56.109Z,8.15
2023-05-17T05:27:22.871Z,8.30
2023-05-17T05:29:49.647Z,8.29
2023-05-17T05:32:17.471Z,8.10
2023-05-17T05:34:44.227Z,8.44
2023-05-17T05:37:13.961Z,8.12
2023-05-17T05:39:40.837Z,8.36
2023-05-17T05:42:07.783Z,8.22
2023-05-17T05:44:34.572Z,8.40
2023-05-17T05:47:01.323Z,8.43
2023-05-17T05:49:28.082Z,8.28
2023-05-17T05:51:55.211Z,8.59
2023-05-17T05:54:22.083Z,8.49
2023-05-17T05:56:48.884Z,8.41
2023-05-17T05:59:15.707Z,8.63
2023-05-17T06:01:44.565Z,8.54
2023-05-17T06:04:11.336Z,8.57
2023-05-17T06:06:40.881Z,8.50
2023-05-17T06:09:07.792Z,8.65
2023-05-17T06:11:34.506Z,8.60
2023-05-17T06:14:01.369Z,8.56
2023-05-17T06:16:28.160Z,8.49
2023-05-17T06:18:55.064Z,8.53
2023-05-17T06:21:21.990Z,8.56
2023-05-17T06:23:49.126Z,8.58
2023-05-17T06:26:15.914Z,8.59
2023-05-17T06:28:42.872Z,8.36
2023-05-17T06:31:09.697Z,8.50
2023-05-17T06:33:36.565Z,8.71
2023-05-17T06:38:30.337Z,8.62
2023-05-17T06:40:58.750Z,8.58
2023-05-17T06:43:25.871Z,8.57
2023-05-17T06:45:53.048Z,8.29
2023-05-17T06:48:20.271Z,8.48
2023-05-17T06:50:47.230Z,8.52
2023-05-17T06:53:14.113Z,8.84
2023-05-17T06:55:41.684Z,8.69
2023-05-17T06:58:10.822Z,8.57
2023-05-17T07:00:37.959Z,8.67
2023-05-17T07:03:04.969Z,8.72
2023-05-17T07:05:32.273Z,8.50
2023-05-17T07:08:02.026Z,8.81
2023-05-17T07:10:28.848Z,8.94
2023-05-17T07:12:55.764Z,8.91
2023-05-17T07:15:22.609Z,8.69
2023-05-17T07:17:49.413Z,9.05
2023-05-17T07:20:16.773Z,8.81
2023-05-17T07:22:43.700Z,9.05
2023-05-17T07:25:11.020Z,9.01
2023-05-17T07:27:37.852Z,8.90
2023-05-17T07:30:05.466Z,8.88
2023-05-17T07:32:32.374Z,8.72
2023-05-17T07:34:59.276Z,8.95
2023-05-17T07:37:26.138Z,8.64
2023-05-17T07:39:52.929Z,8.67
2023-05-17T07:42:19.774Z,8.60
2023-05-17T07:44:48.930Z,8.47
2023-05-17T07:47:16.590Z,8.58
2023-05-17T07:49:43.544Z,8.80
2023-05-17T07:52:10.298Z,8.52
2023-05-17T07:54:37.166Z,8.63
2023-05-17T07:57:04.128Z,8.69
2023-05-17T07:59:31.220Z,8.66
2023-05-17T08:01:58.112Z,8.63
2023-05-17T08:04:25.025Z,8.59
2023-05-17T08:06:51.955Z,8.53
2023-05-17T08:09:20.121Z,8.67
2023-05-17T08:11:47.146Z,8.57
2023-05-17T08:14:17.004Z,8.46
2023-05-17T08:16:46.742Z,8.74
2023-05-17T08:19:15.407Z,8.70
2023-05-17T08:21:43.018Z,8.48
2023-05-17T08:24:10.132Z,8.47
2023-05-17T08:26:36.994Z,8.36
2023-05-17T08:29:05.108Z,8.43
2023-05-17T08:31:32.740Z,8.35
2023-05-17T08:34:00.915Z,8.37
2023-05-17T08:36:28.582Z,8.58
2023-05-17T08:38:55.682Z,8.57
2023-05-17T08:41:22.946Z,8.58
2023-05-17T08:43:51.131Z,8.52
2023-05-17T08:46:21.887Z,8.41
2023-05-17T08:48:53.527Z,8.40
2023-05-17T08:51:22.001Z,8.77
2023-05-17T08:53:50.871Z,8.59
2023-05-17T08:56:19.746Z,8.55
2023-05-17T08:58:56.345Z,8.57
2023-05-17T09:01:26.359Z,8.50
2023-05-17T09:03:53.894Z,8.43
2023-05-17T09:06:21.888Z,8.31
2023-05-17T09:08:52.988Z,8.24
2023-05-17T09:11:28.148Z,8.57
2023-05-17T09:13:58.995Z,8.75
2023-05-17T09:16:28.629Z,8.84
2023-05-17T09:18:56.890Z,8.81
2023-05-17T09:21:25.001Z,8.85
2023-05-17T09:24:04.782Z,8.72
2023-05-17T09:26:40.206Z,8.71
2023-05-17T09:29:16.063Z,8.74
2023-05-17T09:31:44.405Z,8.86
2023-05-17T09:34:11.757Z,8.80
2023-05-17T09:36:42.806Z,8.77
2023-05-17T09:39:13.158Z,8.80
2023-05-17T09:41:48.204Z,8.87
2023-05-17T09:44:16.699Z,9.12
2023-05-17T09:46:48.997Z,9.15
2023-05-17T09:49:17.462Z,9.02
2023-05-17T09:51:47.004Z,9.17
2023-05-17T09:54:14.235Z,9.27
2023-05-17T09:56:41.322Z,9.25
2023-05-17T09:59:13.225Z,9.18
2023-05-17T10:01:45.483Z,9.22
2023-05-17T10:04:14.336Z,9.32
2023-05-17T10:09:16.067Z,9.11
2023-05-17T10:11:46.641Z,8.97
2023-05-17T10:14:18.889Z,9.18
2023-05-17T10:16:46.518Z,8.97
2023-05-17T10:19:14.356Z,8.98
2023-05-17T10:21:43.055Z,8.70
2023-05-17T10:24:11.558Z,8.98
2023-05-17T10:26:39.499Z,8.97
2023-05-17T10:29:06.697Z,8.98
2023-05-17T10:31:34.868Z,9.15
2023-05-17T10:34:03.289Z,9.37
2023-05-17T10:36:30.402Z,8.97
2023-05-17T10:38:58.685Z,9.20
2023-05-17T10:41:30.956Z,9.15
2023-05-17T10:43:58.208Z,9.10
2023-05-17T10:46:25.317Z,9.30
2023-05-17T10:48:53.885Z,9.20
2023-05-17T10:51:26.724Z,9.31
2023-05-17T10:54:09.171Z,9.24
2023-05-17T10:56:40.573Z,9.16
2023-05-17T10:59:22.030Z,9.35
2023-05-17T11:01:55.462Z,9.32
2023-05-17T11:04:27.442Z,9.26
2023-05-17T11:07:15.397Z,9.33
2023-05-17T11:09:42.469Z,9.33
2023-05-17T11:12:12.163Z,9.34
2023-05-17T11:14:48.550Z,9.30
2023-05-17T11:17:19.944Z,9.14
2023-05-17T11:19:55.488Z,9.10
2023-05-17T11:22:37.068Z,9.04
2023-05-17T11:25:08.551Z,9.03
2023-05-17T11:27:39.782Z,9.02
2023-05-17T11:30:22.465Z,9.06
2023-05-17T11:33:00.802Z,9.00
2023-05-17T11:35:38.281Z,9.09
2023-05-17T11:38:17.859Z,9.06
2023-05-17T11:40:49.485Z,9.03
2023-05-17T11:43:18.639Z,9.14
2023-05-17T11:45:52.895Z,9.06
2023-05-17T11:48:24.097Z,9.08
2023-05-17T11:50:52.907Z,9.23
2023-05-17T11:53:20.421Z,9.06
2023-05-17T11:55:50.526Z,8.94
2023-05-17T11:58:19.996Z,8.80
2023-05-17T12:00:53.644Z,8.97
2023-05-17T12:03:23.455Z,8.98
2023-05-17T12:06:03.059Z,8.90
2023-05-17T12:08:32.430Z,9.02
2023-05-17T12:10:59.304Z,8.97
2023-05-17T12:13:29.825Z,8.98
2023-05-17T12:15:58.566Z,9.04
2023-05-17T12:18:59.665Z,9.13
2023-05-17T12:21:26.627Z,9.16
2023-05-17T12:23:53.582Z,9.12
2023-05-17T12:26:24.313Z,9.15
2023-05-17T12:29:00.950Z,9.02
2023-05-17T12:31:52.623Z,8.95
2023-05-17T12:34:19.702Z,8.71
2023-05-17T12:36:47.125Z,8.77
2023-05-17T12:39:15.714Z,8.64
2023-05-17T12:41:43.502Z,8.88
2023-05-17T12:44:15.341Z,8.64
2023-05-17T12:46:43.878Z,8.92
2023-05-17T12:49:12.342Z,8.89
2023-05-17T12:51:46.171Z,8.90
2023-05-17T12:54:16.320Z,8.87
2023-05-17T12:56:46.635Z,8.79
2023-05-17T12:59:17.763Z,8.63
2023-05-17T13:01:58.269Z,8.77
2023-05-17T13:04:33.575Z,8.77
2023-05-17T13:07:02.548Z,8.78
2023-05-17T13:09:31.256Z,8.77
2023-05-17T13:12:07.007Z,8.38
2023-05-17T13:14:38.943Z,8.65
2023-05-17T13:17:08.113Z,8.72
2023-05-17T13:19:38.523Z,8.82
2023-05-17T13:22:06.992Z,8.58
2023-05-17T13:24:35.407Z,8.63
2023-05-17T13:27:03.208Z,8.75
2023-05-17T13:29:38.890Z,8.71
2023-05-17T13:32:08.147Z,8.63
2023-05-17T13:34:35.730Z,8.57
2023-05-17T13:37:02.601Z,8.59
2023-05-17T13:39:29.400Z,8.50
2023-05-17T13:41:56.306Z,8.60
2023-05-17T13:44:23.069Z,8.48
2023-05-17T13:46:49.866Z,8.49
2023-05-17T13:49:17.552Z,8.48
2023-05-17T13:51:45.159Z,8.46
2023-05-17T13:54:11.972Z,8.42
2023-05-17T13:56:39.124Z,8.36
2023-05-17T13:59:06.084Z,8.50
2023-05-17T14:01:33.060Z,8.35
2023-05-17T14:04:00.869Z,8.40
2023-05-17T14:06:28.516Z,8.36
2023-05-17T14:08:56.066Z,8.36
2023-05-17T14:11:22.953Z,8.24
2023-05-17T14:13:49.864Z,8.21
2023-05-17T14:16:16.771Z,8.25
2023-05-17T14:18:43.691Z,8.28
2023-05-17T14:21:10.694Z,8.23
2023-05-17T14:23:37.841Z,8.18
2023-05-17T14:26:07.683Z,8.14
2023-05-17T14:28:38.239Z,8.10
2023-05-17T14:31:09.719Z,8.20
2023-05-17T14:33:37.147Z,8.23
2023-05-17T14:36:04.339Z,8.27
2023-05-17T14:38:31.576Z,8.21
2023-05-17T14:41:00.879Z,8.18
2023-05-17T14:43:28.229Z,8.15
2023-05-17T14:45:55.103Z,8.15
2023-05-17T14:48:22.364Z,8.13
2023-05-17T14:50:50.534Z,8.23
2023-05-17T14:53:17.481Z,8.14
2023-05-17T14:55:44.961Z,8.02
2023-05-17T14:58:13.796Z,8.11
2023-05-17T15:00:42.093Z,8.09
2023-05-17T15:03:09.558Z,8.00
2023-05-17T15:05:37.949Z,8.00
2023-05-17T15:08:05.014Z,7.94
2023-05-17T15:10:32.162Z,7.97
2023-05-17T15:12:59.109Z,7.99
2023-05-17T15:15:26.065Z,8.00
2023-05-17T15:17:53.157Z,7.95
2023-05-17T15:20:20.477Z,7.90
2023-05-17T15:22:48.377Z,7.85
2023-05-17T15:25:16.251Z,7.90
2023-05-17T15:27:43.041Z,7.93
2023-05-17T15:30:12.594Z,7.94
2023-05-17T15:32:40.345Z,7.82
2023-05-17T15:35:07.859Z,7.84
2023-05-17T15:37:34.738Z,7.70
2023-05-17T15:40:09.626Z,8.02
2023-05-17T15:42:37.325Z,7.97
2023-05-17T15:45:04.759Z,7.89
2023-05-17T15:47:42.505Z,7.96
2023-05-17T15:50:10.928Z,7.95
2023-05-17T15:52:38.119Z,7.87
2023-05-17T15:55:05.438Z,7.95
2023-05-17T15:57:32.633Z,7.88
2023-05-17T15:59:59.625Z,7.89
2023-05-17T16:02:26.415Z,7.96
2023-05-17T16:04:53.244Z,7.87
2023-05-17T16:07:20.163Z,7.67
2023-05-17T16:09:47.099Z,7.57
2023-05-17T16:12:13.859Z,7.68
2023-05-17T16:14:40.927Z,7.83
2023-05-17T16:17:07.814Z,7.54
2023-05-17T16:19:34.755Z,7.84
2023-05-17T16:22:02.065Z,7.75
2023-05-17T16:24:29.107Z,7.83
2023-05-17T16:26:55.854Z,7.82
2023-05-17T16:29:22.655Z,7.81
2023-05-17T16:31:49.516Z,7.53
2023-05-17T16:34:16.423Z,7.79
2023-05-17T16:36:47.444Z,7.85
2023-05-17T16:39:14.199Z,7.65
2023-05-17T16:41:40.980Z,7.67
2023-05-17T16:44:07.881Z,7.82
2023-05-17T16:46:34.740Z,7.81
2023-05-17T16:49:01.537Z,7.77
2023-05-17T16:51:28.422Z,7.90
2023-05-17T16:53:55.228Z,7.79
2023-05-17T16:56:22.414Z,7.85
2023-05-17T16:58:49.291Z,7.93
2023-05-17T17:01:16.721Z,7.92
2023-05-17T17:03:43.658Z,7.91
2023-05-17T17:06:10.724Z,7.82
2023-05-17T17:08:38.288Z,7.96
2023-05-17T17:11:05.129Z,7.81
2023-05-17T17:13:32.160Z,7.80
2023-05-17T17:15:59.259Z,7.84
2023-05-17T17:18:26.303Z,7.90
2023-05-17T17:20:53.157Z,7.82
2023-05-17T17:23:20.133Z,7.88
2023-05-17T17:25:46.893Z,7.70
2023-05-17T17:28:13.994Z,7.60
2023-05-17T17:30:40.741Z,7.81
2023-05-17T17:33:07.601Z,7.78
2023-05-17T17:35:34.590Z,7.76
2023-05-17T17:38:03.260Z,7.84
2023-05-17T17:40:30.446Z,7.78
2023-05-17T17:42:57.481Z,7.81
2023-05-17T17:45:24.414Z,7.77
2023-05-17T17:47:51.488Z,7.68
2023-05-17T17:50:18.412Z,7.73
2023-05-17T17:52:45.352Z,7.67
2023-05-17T17:55:13.776Z,7.66
2023-05-17T17:57:41.834Z,7.70
2023-05-17T18:00:11.727Z,7.72
2023-05-17T18:02:39.526Z,7.66
2023-05-17T18:05:06.616Z,7.45
2023-05-17T18:07:33.576Z,7.56
2023-05-17T18:10:01.930Z,7.50
2023-05-17T18:12:28.915Z,7.44
2023-05-17T18:14:56.154Z,7.62
2023-05-17T18:17:23.449Z,7.64
2023-05-17T18:19:50.329Z,7.79
2023-05-17T18:22:17.499Z,7.70
2023-05-17T18:24:45.123Z,7.64
2023-05-17T18:27:13.976Z,7.65
2023-05-17T18:29:41.434Z,7.60
2023-05-17T18:32:09.724Z,7.77
2023-05-17T18:34:36.640Z,7.85
2023-05-17T18:37:04.510Z,7.63
2023-05-17T18:39:31.720Z,7.66
2023-05-17T18:41:58.822Z,7.63
2023-05-17T18:44:26.172Z,7.55
2023-05-17T18:46:54.231Z,7.67
2023-05-17T18:49:22.117Z,7.32
2023-05-17T18:51:49.084Z,7.68
2023-05-17T18:54:16.759Z,7.31
2023-05-17T18:56:43.848Z,7.49
2023-05-17T18:59:10.696Z,7.56
2023-05-17T19:01:37.796Z,7.55
2023-05-17T19:04:10.465Z,7.40
2023-05-17T19:06:41.394Z,7.45
2023-05-17T19:09:09.819Z,7.63
2023-05-17T19:11:37.380Z,7.56
2023-05-17T19:14:06.474Z,7.50
2023-05-17T19:16:33.971Z,7.52
2023-05-17T19:19:00.971Z,7.40
2023-05-17T19:21:27.865Z,7.41
2023-05-17T19:23:57.260Z,7.64
2023-05-17T19:26:24.938Z,7.47
2023-05-17T19:28:58.925Z,7.50
2023-05-17T19:31:26.315Z,7.64
2023-05-17T19:33:53.397Z,7.54
2023-05-17T19:36:20.191Z,7.53
2023-05-17T19:38:47.049Z,7.42
2023-05-17T19:41:14.122Z,7.58
2023-05-17T19:43:41.556Z,7.59
2023-05-17T19:46:11.248Z,7.49
2023-05-17T19:48:38.736Z,7.46
2023-05-17T19:51:06.056Z,7.44
2023-05-17T19:53:47.980Z,7.46
2023-05-17T19:56:20.434Z,7.33
2023-05-17T19:58:47.698Z,7.42
2023-05-17T20:01:15.478Z,7.33
2023-05-17T20:03:43.014Z,7.45
2023-05-17T20:06:14.774Z,7.49
2023-05-17T20:08:42.605Z,7.54
2023-05-17T20:11:09.992Z,7.37
2023-05-17T20:13:40.533Z,7.38
2023-05-17T20:16:13.564Z,7.45
2023-05-17T20:18:44.673Z,7.41
2023-05-17T20:21:18.841Z,7.42
2023-05-17T20:23:50.542Z,7.54
2023-05-17T20:26:19.085Z,7.47
2023-05-17T20:28:46.393Z,7.49
2023-05-17T20:31:14.724Z,7.39
2023-05-17T20:33:41.940Z,7.46
2023-05-17T20:36:12.084Z,7.49
2023-05-17T20:38:38.957Z,7.39
2023-05-17T20:41:07.540Z,7.47
2023-05-17T20:43:35.322Z,7.46
2023-05-17T20:46:07.009Z,7.49
2023-05-17T20:48:34.564Z,7.49
2023-05-17T20:51:01.985Z,7.64
2023-05-17T20:53:30.573Z,7.53
2023-05-17T20:55:57.906Z,7.38
2023-05-17T20:58:24.843Z,7.40
2023-05-17T21:00:53.054Z,7.34
2023-05-17T21:03:19.963Z,7.37
2023-05-17T21:05:47.283Z,7.40
2023-05-17T21:08:14.097Z,7.38
2023-05-17T21:10:42.849Z,7.41
2023-05-17T21:13:09.845Z,7.40
2023-05-17T21:15:37.070Z,7.38
2023-05-17T21:18:04.454Z,7.46
2023-05-17T21:20:31.481Z,7.56
2023-05-17T21:22:58.395Z,7.41
2023-05-17T21:25:25.163Z,7.36
2023-05-17T21:27:52.017Z,7.17
2023-05-17T21:30:18.851Z,7.31
2023-05-17T21:32:45.923Z,7.47
2023-05-17T21:35:12.776Z,7.48
2023-05-17T21:37:40.280Z,7.45
2023-05-17T21:40:08.208Z,7.41
2023-05-17T21:42:35.247Z,7.39
2023-05-17T21:45:02.485Z,7.21
2023-05-17T21:47:29.248Z,7.44
2023-05-17T21:49:56.134Z,7.54
2023-05-17T21:52:22.900Z,7.62
2023-05-17T21:54:49.693Z,7.49
2023-05-17T21:57:16.425Z,7.36
2023-05-17T21:59:43.225Z,7.48
2023-05-17T22:02:09.993Z,7.50
2023-05-17T22:04:38.410Z,7.48
2023-05-17T22:07:06.392Z,7.52
2023-05-17T22:09:34.371Z,7.50
2023-05-17T22:12:01.205Z,7.40
2023-05-17T22:14:33.584Z,7.47
2023-05-17T22:17:01.740Z,7.61
2023-05-17T22:19:30.473Z,7.55
2023-05-17T22:21:57.372Z,7.51
2023-05-17T22:24:24.100Z,7.57
2023-05-17T22:26:51.083Z,7.60
2023-05-17T22:29:17.780Z,7.50
2023-05-17T22:31:44.639Z,7.52
2023-05-17T22:34:11.527Z,7.50
2023-05-17T22:36:38.354Z,7.55
2023-05-17T22:39:05.453Z,7.62
2023-05-17T22:41:32.200Z,7.54
2023-05-17T22:43:59.012Z,7.69
2023-05-17T22:46:27.902Z,7.42
2023-05-17T22:48:58.112Z,7.59
2023-05-17T22:51:25.279Z,7.51
2023-05-17T22:53:52.106Z,7.44
2023-05-17T22:56:18.841Z,7.45
2023-05-17T22:58:45.665Z,7.43
2023-05-17T23:03:33.444Z,7.43
2023-05-17T23:06:03.388Z,7.42
2023-05-17T23:08:30.467Z,7.53
2023-05-17T23:10:58.590Z,7.56
2023-05-17T23:13:26.454Z,7.51
2023-05-17T23:15:53.812Z,7.39
2023-05-17T23:18:20.754Z,7.29
2023-05-17T23:20:49.002Z,7.42
2023-05-17T23:23:16.257Z,7.44
2023-05-17T23:25:44.924Z,7.49
2023-05-17T23:28:11.746Z,7.62
2023-05-17T23:30:40.102Z,7.49
2023-05-17T23:33:07.074Z,7.48
2023-05-17T23:35:33.888Z,7.28
2023-05-17T23:38:00.662Z,7.46
2023-05-17T23:40:27.500Z,7.39
2023-05-17T23:42:54.325Z,7.59
2023-05-17T23:45:21.385Z,7.45
2023-05-17T23:47:50.301Z,7.43
2023-05-17T23:50:17.058Z,7.53
2023-05-17T23:52:44.151Z,7.38
2023-05-17T23:55:12.237Z,7.38
2023-05-17T23:57:40.172Z,7.38
